sensor_id;sensor_type;location;lat;lon;timestamp;pressure;altitude;pressure_sealevel;temperature;humidity
29433;BME280;16405;53.964;13.448;2024-01-30T00:01:37;102458.72;;;1.26;82.23
29433;BME280;16405;53.964;13.448;2024-01-30T00:04:03;102460.44;;;1.27;82.78
29433;BME280;16405;53.964;13.448;2024-01-30T00:06:29;102452.72;;;1.30;82.77
29433;BME280;16405;53.964;13.448;2024-01-30T00:08:55;102450.13;;;1.30;82.68
29433;BME280;16405;53.964;13.448;2024-01-30T00:11:21;102456.25;;;1.32;82.47
29433;BME280;16405;53.964;13.448;2024-01-30T00:13:47;102452.69;;;1.29;82.93
29433;BME280;16405;53.964;13.448;2024-01-30T00:16:24;102456.25;;;1.32;82.65
29433;BME280;16405;53.964;13.448;2024-01-30T00:18:58;102457.94;;;1.30;82.75
29433;BME280;16405;53.964;13.448;2024-01-30T00:21:27;102453.56;;;1.29;82.49
29433;BME280;16405;53.964;13.448;2024-01-30T00:23:53;102463.13;;;1.32;83.09
29433;BME280;16405;53.964;13.448;2024-01-30T00:26:24;102458.84;;;1.32;83.09
29433;BME280;16405;53.964;13.448;2024-01-30T00:28:52;102453.69;;;1.35;83.32
29433;BME280;16405;53.964;13.448;2024-01-30T00:31:20;102445.88;;;1.34;83.15
29433;BME280;16405;53.964;13.448;2024-01-30T00:33:54;102448.56;;;1.38;83.14
29433;BME280;16405;53.964;13.448;2024-01-30T00:36:19;102448.56;;;1.38;83.32
29433;BME280;16405;53.964;13.448;2024-01-30T00:38:48;102450.28;;;1.38;83.24
29433;BME280;16405;53.964;13.448;2024-01-30T00:41:14;102449.47;;;1.40;83.44
29433;BME280;16405;53.964;13.448;2024-01-30T00:43:49;102445.16;;;1.41;83.55
29433;BME280;16405;53.964;13.448;2024-01-30T00:46:15;102450.34;;;1.42;83.40
29433;BME280;16405;53.964;13.448;2024-01-30T00:48:49;102450.31;;;1.39;83.60
29433;BME280;16405;53.964;13.448;2024-01-30T00:51:15;102452.94;;;1.41;83.19
29433;BME280;16405;53.964;13.448;2024-01-30T00:53:41;102457.28;;;1.40;83.29
29433;BME280;16405;53.964;13.448;2024-01-30T00:56:09;102455.53;;;1.41;83.68
29433;BME280;16405;53.964;13.448;2024-01-30T00:58:44;102449.44;;;1.39;83.64
29433;BME280;16405;53.964;13.448;2024-01-30T01:01:10;102453.78;;;1.40;83.57
29433;BME280;16405;53.964;13.448;2024-01-30T01:03:35;102449.41;;;1.37;83.89
29433;BME280;16405;53.964;13.448;2024-01-30T01:06:01;102442.47;;;1.36;83.42
29433;BME280;16405;53.964;13.448;2024-01-30T01:08:34;102439.03;;;1.37;83.51
29433;BME280;16405;53.964;13.448;2024-01-30T01:11:03;102442.47;;;1.38;83.81
29433;BME280;16405;53.964;13.448;2024-01-30T01:13:29;102439.06;;;1.39;84.03
29433;BME280;16405;53.964;13.448;2024-01-30T01:16:02;102436.38;;;1.36;84.07
29433;BME280;16405;53.964;13.448;2024-01-30T01:18:31;102437.28;;;1.36;84.03
29433;BME280;16405;53.964;13.448;2024-01-30T01:20:57;102446.81;;;1.37;84.24
29433;BME280;16405;53.964;13.448;2024-01-30T01:23:28;102439.88;;;1.38;83.74
29433;BME280;16405;53.964;13.448;2024-01-30T01:25:56;102446.81;;;1.37;84.03
29433;BME280;16405;53.964;13.448;2024-01-30T01:28:22;102443.38;;;1.38;84.44
29433;BME280;16405;53.964;13.448;2024-01-30T01:30:56;102444.25;;;1.39;84.29
29433;BME280;16405;53.964;13.448;2024-01-30T01:33:36;102438.19;;;1.40;84.14
29433;BME280;16405;53.964;13.448;2024-01-30T01:36:03;102440.84;;;1.41;84.43
29433;BME280;16405;53.964;13.448;2024-01-30T01:38:29;102439.06;;;1.39;84.51
29433;BME280;16405;53.964;13.448;2024-01-30T01:41:00;102436.50;;;1.40;84.59
29433;BME280;16405;53.964;13.448;2024-01-30T01:43:29;102446.88;;;1.42;84.47
29433;BME280;16405;53.964;13.448;2024-01-30T01:45:55;102441.69;;;1.42;84.64
29433;BME280;16405;53.964;13.448;2024-01-30T01:48:21;102439.97;;;1.42;84.32
29433;BME280;16405;53.964;13.448;2024-01-30T01:50:47;102439.97;;;1.41;84.35
29433;BME280;16405;53.964;13.448;2024-01-30T01:53:16;102442.56;;;1.42;84.56
29433;BME280;16405;53.964;13.448;2024-01-30T01:55:49;102439.94;;;1.39;84.41
29433;BME280;16405;53.964;13.448;2024-01-30T01:58:16;102439.88;;;1.38;84.73
29433;BME280;16405;53.964;13.448;2024-01-30T02:00:47;102442.47;;;1.36;84.25
29433;BME280;16405;53.964;13.448;2024-01-30T02:03:14;102442.44;;;1.35;84.59
29433;BME280;16405;53.964;13.448;2024-01-30T02:05:43;102438.06;;;1.32;84.59
29433;BME280;16405;53.964;13.448;2024-01-30T02:08:09;102451.88;;;1.31;84.66
29433;BME280;16405;53.964;13.448;2024-01-30T02:10:43;102438.06;;;1.32;84.63
29433;BME280;16405;53.964;13.448;2024-01-30T02:13:11;102437.22;;;1.33;84.67
29433;BME280;16405;53.964;13.448;2024-01-30T02:15:37;102438.06;;;1.32;84.66
29433;BME280;16405;53.964;13.448;2024-01-30T02:18:09;102435.47;;;1.32;84.84
29433;BME280;16405;53.964;13.448;2024-01-30T02:20:35;102440.66;;;1.32;85.05
29433;BME280;16405;53.964;13.448;2024-01-30T02:23:03;102431.97;;;1.32;85.04
29433;BME280;16405;53.964;13.448;2024-01-30T02:25:40;102438.94;;;1.33;85.21
29433;BME280;16405;53.964;13.448;2024-01-30T02:28:32;102429.38;;;1.30;85.19
29433;BME280;16405;53.964;13.448;2024-01-30T02:30:58;102433.69;;;1.30;85.10
29433;BME280;16405;53.964;13.448;2024-01-30T02:33:26;102429.31;;;1.27;85.02
29433;BME280;16405;53.964;13.448;2024-01-30T02:35:52;102428.44;;;1.27;85.32
29433;BME280;16405;53.964;13.448;2024-01-30T02:38:23;102418.84;;;1.22;85.38
29433;BME280;16405;53.964;13.448;2024-01-30T02:40:49;102424.06;;;1.24;85.25
29433;BME280;16405;53.964;13.448;2024-01-30T02:43:16;102422.28;;;1.23;85.34
29433;BME280;16405;53.964;13.448;2024-01-30T02:45:42;102422.22;;;1.18;85.37
29433;BME280;16405;53.964;13.448;2024-01-30T02:48:08;102419.53;;;1.14;85.37
29433;BME280;16405;53.964;13.448;2024-01-30T02:50:45;102424.63;;;1.09;84.84
29433;BME280;16405;53.964;13.448;2024-01-30T02:53:11;102422.78;;;1.03;84.90
29433;BME280;16405;53.964;13.448;2024-01-30T02:55:37;102427.03;;;0.98;84.69
29433;BME280;16405;53.964;13.448;2024-01-30T02:58:07;102420.94;;;0.96;85.07
29433;BME280;16405;53.964;13.448;2024-01-30T05:42:59;102380.59;;;0.68;89.68
29433;BME280;16405;53.964;13.448;2024-01-30T05:45:29;102376.28;;;0.69;89.96
29433;BME280;16405;53.964;13.448;2024-01-30T05:48:25;102380.69;;;0.73;89.90
29433;BME280;16405;53.964;13.448;2024-01-30T05:51:19;102387.59;;;0.72;89.79
29433;BME280;16405;53.964;13.448;2024-01-30T05:53:45;102386.72;;;0.72;89.75
29433;BME280;16405;53.964;13.448;2024-01-30T05:56:37;102381.53;;;0.72;89.77
29433;BME280;16405;53.964;13.448;2024-01-30T05:59:03;102383.19;;;0.68;90.01
29433;BME280;16405;53.964;13.448;2024-01-30T06:01:55;102384.97;;;0.71;90.03
29433;BME280;16405;53.964;13.448;2024-01-30T06:05:12;102378.03;;;0.71;90.20
29433;BME280;16405;53.964;13.448;2024-01-30T06:08:05;102374.63;;;0.72;90.57
29433;BME280;16405;53.964;13.448;2024-01-30T06:10:43;102379.84;;;0.74;90.41
29433;BME280;16405;53.964;13.448;2024-01-30T06:16:55;102378.94;;;0.73;90.04
29433;BME280;16405;53.964;13.448;2024-01-30T06:19:32;102382.44;;;0.74;90.09
29433;BME280;16405;53.964;13.448;2024-01-30T06:25:42;102376.28;;;0.69;91.47
29433;BME280;16405;53.964;13.448;2024-01-30T06:28:08;102379.00;;;0.75;91.39
29433;BME280;16405;53.964;13.448;2024-01-30T06:31:04;102375.53;;;0.74;91.57
29433;BME280;16405;53.964;13.448;2024-01-30T06:34:16;102368.56;;;0.73;91.50
29433;BME280;16405;53.964;13.448;2024-01-30T06:40:04;102363.28;;;0.67;91.38
29433;BME280;16405;53.964;13.448;2024-01-30T06:46:44;102352.84;;;0.64;92.56
29433;BME280;16405;53.964;13.448;2024-01-30T06:49:55;102358.13;;;0.67;92.43
29433;BME280;16405;53.964;13.448;2024-01-30T06:52:23;102346.00;;;0.68;92.60
29433;BME280;16405;53.964;13.448;2024-01-30T06:55:04;102356.44;;;0.71;92.33
29433;BME280;16405;53.964;13.448;2024-01-30T06:57:45;102353.84;;;0.69;92.45
29433;BME280;16405;53.964;13.448;2024-01-30T07:00:56;102361.56;;;0.68;91.85
29433;BME280;16405;53.964;13.448;2024-01-30T07:06:05;102356.44;;;0.71;91.41
29433;BME280;16405;53.964;13.448;2024-01-30T07:08:43;102354.69;;;0.70;91.26
29433;BME280;16405;53.964;13.448;2024-01-30T07:14:35;102362.47;;;0.70;90.79
29433;BME280;16405;53.964;13.448;2024-01-30T07:17:43;102352.97;;;0.70;90.48
29433;BME280;16405;53.964;13.448;2024-01-30T07:28:54;102333.22;;;0.77;90.26
29433;BME280;16405;53.964;13.448;2024-01-30T07:31:26;102340.19;;;0.78;90.24
29433;BME280;16405;53.964;13.448;2024-01-30T07:35:03;102335.84;;;0.78;89.96
29433;BME280;16405;53.964;13.448;2024-01-30T07:38:05;102335.84;;;0.78;89.95
29433;BME280;16405;53.964;13.448;2024-01-30T07:41:16;102328.13;;;0.80;90.05
29433;BME280;16405;53.964;13.448;2024-01-30T07:44:13;102330.72;;;0.81;90.11
29433;BME280;16405;53.964;13.448;2024-01-30T07:49:34;102323.06;;;0.88;90.39
29433;BME280;16405;53.964;13.448;2024-01-30T07:56:44;102332.66;;;0.92;90.33
29433;BME280;16405;53.964;13.448;2024-01-30T07:59:25;102325.81;;;0.95;90.50
29433;BME280;16405;53.964;13.448;2024-01-30T08:02:06;102321.53;;;0.97;90.55
29433;BME280;16405;53.964;13.448;2024-01-30T08:07:56;102336.34;;;1.05;90.76
29433;BME280;16405;53.964;13.448;2024-01-30T08:10:36;102340.66;;;1.04;90.88
29433;BME280;16405;53.964;13.448;2024-01-30T08:13:44;102351.06;;;1.04;91.35
29433;BME280;16405;53.964;13.448;2024-01-30T08:16:45;102344.13;;;1.05;92.04
29433;BME280;16405;53.964;13.448;2024-01-30T08:19:26;102339.88;;;1.08;91.98
29433;BME280;16405;53.964;13.448;2024-01-30T08:22:04;102332.16;;;1.11;92.30
29433;BME280;16405;53.964;13.448;2024-01-30T08:24:45;102337.41;;;1.16;91.64
29433;BME280;16405;53.964;13.448;2024-01-30T08:27:37;102328.00;;;1.21;92.02
29433;BME280;16405;53.964;13.448;2024-01-30T08:30:06;102330.69;;;1.26;91.82
29433;BME280;16405;53.964;13.448;2024-01-30T08:33:15;102335.03;;;1.28;91.29
29433;BME280;16405;53.964;13.448;2024-01-30T08:35:56;102342.94;;;1.34;91.67
29433;BME280;16405;53.964;13.448;2024-01-30T08:42:37;102344.03;;;1.47;91.21
29433;BME280;16405;53.964;13.448;2024-01-30T08:48:23;102340.81;;;1.63;91.39
29433;BME280;16405;53.964;13.448;2024-01-30T08:51:25;102338.34;;;1.73;91.31
29433;BME280;16405;53.964;13.448;2024-01-30T08:57:45;102348.91;;;1.83;91.48
29433;BME280;16405;53.964;13.448;2024-01-30T09:01:15;102338.63;;;1.88;91.24
29433;BME280;16405;53.964;13.448;2024-01-30T09:04:45;102340.50;;;1.97;90.87
29433;BME280;16405;53.964;13.448;2024-01-30T09:07:36;102335.34;;;2.03;91.59
29433;BME280;16405;53.964;13.448;2024-01-30T09:10:37;102342.47;;;2.15;91.09
29433;BME280;16405;53.964;13.448;2024-01-30T09:13:17;102346.91;;;2.23;91.07
29433;BME280;16405;53.964;13.448;2024-01-30T09:15:56;102346.13;;;2.31;91.34
29433;BME280;16405;53.964;13.448;2024-01-30T09:18:36;102345.38;;;2.38;91.02
29433;BME280;16405;53.964;13.448;2024-01-30T09:21:14;102348.09;;;2.47;90.79
29433;BME280;16405;53.964;13.448;2024-01-30T09:27:06;102346.53;;;2.60;91.05
29433;BME280;16405;53.964;13.448;2024-01-30T09:30:05;102349.22;;;2.66;90.86
29433;BME280;16405;53.964;13.448;2024-01-30T09:32:54;102345.78;;;2.72;90.58
29433;BME280;16405;53.964;13.448;2024-01-30T09:35:56;102344.13;;;2.78;90.63
29433;BME280;16405;53.964;13.448;2024-01-30T09:46:04;102326.09;;;2.94;90.14
29433;BME280;16405;53.964;13.448;2024-01-30T09:49:06;102336.56;;;3.00;90.28
29433;BME280;16405;53.964;13.448;2024-01-30T09:52:17;102339.22;;;3.04;90.04
29433;BME280;16405;53.964;13.448;2024-01-30T09:54:57;102337.53;;;3.08;90.23
29433;BME280;16405;53.964;13.448;2024-01-30T10:13:07;102328.97;;;3.21;89.91
29433;BME280;16405;53.964;13.448;2024-01-30T10:16:47;102331.59;;;3.23;90.18
29433;BME280;16405;53.964;13.448;2024-01-30T10:19:16;102330.72;;;3.21;89.71
29433;BME280;16405;53.964;13.448;2024-01-30T10:21:55;102327.28;;;3.25;89.82
29433;BME280;16405;53.964;13.448;2024-01-30T10:25:07;102329.91;;;3.26;89.80
29433;BME280;16405;53.964;13.448;2024-01-30T10:28:03;102328.19;;;3.30;90.36
29433;BME280;16405;53.964;13.448;2024-01-30T10:31:24;102330.72;;;3.22;90.37
29433;BME280;16405;53.964;13.448;2024-01-30T10:34:11;102316.03;;;3.29;90.51
29433;BME280;16405;53.964;13.448;2024-01-30T10:47:13;102306.63;;;3.45;90.70
29433;BME280;16405;53.964;13.448;2024-01-30T10:50:07;102305.75;;;3.47;90.68
29433;BME280;16405;53.964;13.448;2024-01-30T10:53:16;102307.53;;;3.50;90.59
29433;BME280;16405;53.964;13.448;2024-01-30T10:59:26;102297.25;;;3.65;91.12
29433;BME280;16405;53.964;13.448;2024-01-30T11:10:11;102285.31;;;4.07;92.66
29433;BME280;16405;53.964;13.448;2024-01-30T11:13:39;102274.09;;;4.22;92.03
29433;BME280;16405;53.964;13.448;2024-01-30T11:16:48;102278.53;;;4.39;92.04
29433;BME280;16405;53.964;13.448;2024-01-30T11:19:27;102277.72;;;4.60;91.78
29433;BME280;16405;53.964;13.448;2024-01-30T11:22:44;102279.53;;;4.84;91.01
29433;BME280;16405;53.964;13.448;2024-01-30T11:25:37;102278.69;;;5.05;90.87
29433;BME280;16405;53.964;13.448;2024-01-30T11:28:45;102271.72;;;5.27;90.06
29433;BME280;16405;53.964;13.448;2024-01-30T11:35:46;102266.50;;;5.54;88.11
29433;BME280;16405;53.964;13.448;2024-01-30T11:38:25;102263.00;;;5.57;86.53
29433;BME280;16405;53.964;13.448;2024-01-30T11:41:18;102263.03;;;5.62;86.60
29433;BME280;16405;53.964;13.448;2024-01-30T11:46:56;102258.59;;;5.90;86.06
29433;BME280;16405;53.964;13.448;2024-01-30T11:52:45;102255.94;;;6.13;85.17
29433;BME280;16405;53.964;13.448;2024-01-30T11:58:50;102243.66;;;6.30;84.54
29433;BME280;16405;53.964;13.448;2024-01-30T12:01:37;102239.25;;;6.42;84.41
29433;BME280;16405;53.964;13.448;2024-01-30T12:04:46;102231.41;;;6.42;83.69
29433;BME280;16405;53.964;13.448;2024-01-30T12:07:24;102232.28;;;6.44;84.13
29433;BME280;16405;53.964;13.448;2024-01-30T12:10:05;102226.16;;;6.43;83.43
29433;BME280;16405;53.964;13.448;2024-01-30T12:12:46;102220.91;;;6.45;83.43
29433;BME280;16405;53.964;13.448;2024-01-30T12:15:25;102214.84;;;6.40;83.70
29433;BME280;16405;53.964;13.448;2024-01-30T12:18:07;102219.19;;;6.39;83.86
29433;BME280;16405;53.964;13.448;2024-01-30T12:21:05;102220.06;;;6.40;83.45
29433;BME280;16405;53.964;13.448;2024-01-30T12:27:08;102215.72;;;6.42;84.33
29433;BME280;16405;53.964;13.448;2024-01-30T12:32:46;102200.78;;;6.57;83.89
29433;BME280;16405;53.964;13.448;2024-01-30T12:35:23;102207.69;;;6.65;83.95
29433;BME280;16405;53.964;13.448;2024-01-30T12:38:23;102206.75;;;6.76;83.96
29433;BME280;16405;53.964;13.448;2024-01-30T12:41:36;102198.03;;;6.74;83.20
29433;BME280;16405;53.964;13.448;2024-01-30T12:44:14;102196.28;;;6.73;82.34
29433;BME280;16405;53.964;13.448;2024-01-30T12:46:43;102194.56;;;6.74;83.28
29433;BME280;16405;53.964;13.448;2024-01-30T12:49:38;102188.44;;;6.75;83.03
29433;BME280;16405;53.964;13.448;2024-01-30T12:52:16;102190.19;;;6.71;83.72
29433;BME280;16405;53.964;13.448;2024-01-30T12:54:54;102185.81;;;6.73;83.43
29433;BME280;16405;53.964;13.448;2024-01-30T12:57:28;102191.06;;;6.76;83.13
29433;BME280;16405;53.964;13.448;2024-01-30T12:59:57;102197.16;;;6.75;82.94
29433;BME280;16405;53.964;13.448;2024-01-30T13:02:23;102191.03;;;6.78;83.51
29433;BME280;16405;53.964;13.448;2024-01-30T13:04:49;102182.31;;;6.81;83.63
29433;BME280;16405;53.964;13.448;2024-01-30T13:07:15;102184.88;;;6.85;83.61
29433;BME280;16405;53.964;13.448;2024-01-30T13:09:53;102187.41;;;6.93;84.06
29433;BME280;16405;53.964;13.448;2024-01-30T13:12:19;102183.94;;;6.94;84.00
29433;BME280;16405;53.964;13.448;2024-01-30T13:14:55;102183.00;;;7.01;84.14
29433;BME280;16405;53.964;13.448;2024-01-30T13:17:21;102189.06;;;7.06;83.94
29433;BME280;16405;53.964;13.448;2024-01-30T13:19:47;102188.19;;;7.07;83.80
29433;BME280;16405;53.964;13.448;2024-01-30T13:22:43;102185.56;;;7.07;83.12
29433;BME280;16405;53.964;13.448;2024-01-30T13:25:18;102186.44;;;7.08;83.35
29433;BME280;16405;53.964;13.448;2024-01-30T13:27:44;102176.88;;;7.02;83.35
29433;BME280;16405;53.964;13.448;2024-01-30T13:30:10;102169.03;;;6.99;83.65
29433;BME280;16405;53.964;13.448;2024-01-30T13:32:45;102165.59;;;6.94;83.45
29433;BME280;16405;53.964;13.448;2024-01-30T13:35:24;102154.31;;;6.86;83.82
29433;BME280;16405;53.964;13.448;2024-01-30T13:37:53;102159.56;;;6.87;84.48
29433;BME280;16405;53.964;13.448;2024-01-30T13:40:19;102161.31;;;6.84;84.01
29433;BME280;16405;53.964;13.448;2024-01-30T13:42:55;102155.25;;;6.75;84.93
29433;BME280;16405;53.964;13.448;2024-01-30T13:45:34;102161.34;;;6.77;85.11
29433;BME280;16405;53.964;13.448;2024-01-30T13:48:01;102153.59;;;6.70;85.13
29433;BME280;16405;53.964;13.448;2024-01-30T13:50:35;102157.06;;;6.72;85.38
29433;BME280;16405;53.964;13.448;2024-01-30T13:53:07;102149.16;;;6.73;85.28
29433;BME280;16405;53.964;13.448;2024-01-30T13:55:43;102155.22;;;6.80;85.88
29433;BME280;16405;53.964;13.448;2024-01-30T13:58:23;102152.59;;;6.83;85.52
29433;BME280;16405;53.964;13.448;2024-01-30T14:00:49;102154.31;;;6.86;85.74
29433;BME280;16405;53.964;13.448;2024-01-30T14:03:25;102156.03;;;6.88;85.74
29433;BME280;16405;53.964;13.448;2024-01-30T14:05:55;102149.03;;;6.90;85.04
29433;BME280;16405;53.964;13.448;2024-01-30T14:09:04;102151.66;;;6.93;85.57
29433;BME280;16405;53.964;13.448;2024-01-30T14:11:46;102150.75;;;6.94;85.69
29433;BME280;16405;53.964;13.448;2024-01-30T14:14:56;102156.00;;;6.96;84.91
29433;BME280;16405;53.964;13.448;2024-01-30T14:17:38;102152.50;;;6.92;84.77
29433;BME280;16405;53.964;13.448;2024-01-30T14:20:15;102149.94;;;6.89;84.90
29433;BME280;16405;53.964;13.448;2024-01-30T14:22:53;102144.69;;;6.88;85.44
29433;BME280;16405;53.964;13.448;2024-01-30T14:25:23;102142.13;;;6.83;85.23
29433;BME280;16405;53.964;13.448;2024-01-30T14:27:55;102143.88;;;6.81;85.72
29433;BME280;16405;53.964;13.448;2024-01-30T14:30:21;102142.16;;;6.77;85.35
29433;BME280;16405;53.964;13.448;2024-01-30T14:32:47;102143.94;;;6.73;85.57
29433;BME280;16405;53.964;13.448;2024-01-30T14:35:14;102146.59;;;6.70;85.84
29433;BME280;16405;53.964;13.448;2024-01-30T14:38:06;102144.88;;;6.68;86.07
29433;BME280;16405;53.964;13.448;2024-01-30T14:40:45;102141.44;;;6.60;86.01
29433;BME280;16405;53.964;13.448;2024-01-30T14:43:29;102136.25;;;6.55;86.80
29433;BME280;16405;53.964;13.448;2024-01-30T14:46:02;102136.28;;;6.47;86.81
29433;BME280;16405;53.964;13.448;2024-01-30T14:48:28;102135.41;;;6.45;86.99
29433;BME280;16405;53.964;13.448;2024-01-30T14:50:54;102133.69;;;6.43;86.69
29433;BME280;16405;53.964;13.448;2024-01-30T14:53:19;102138.94;;;6.43;87.13
29433;BME280;16405;53.964;13.448;2024-01-30T14:55:55;102132.84;;;6.41;87.26
29433;BME280;16405;53.964;13.448;2024-01-30T14:58:21;102128.50;;;6.36;86.95
29433;BME280;16405;53.964;13.448;2024-01-30T15:00:47;102120.69;;;6.32;87.14
29433;BME280;16405;53.964;13.448;2024-01-30T15:03:27;102133.78;;;6.30;87.13
29433;BME280;16405;53.964;13.448;2024-01-30T15:05:55;102126.81;;;6.26;87.10
29433;BME280;16405;53.964;13.448;2024-01-30T15:08:35;102135.53;;;6.28;86.96
29433;BME280;16405;53.964;13.448;2024-01-30T15:11:12;102135.56;;;6.25;87.60
29433;BME280;16405;53.964;13.448;2024-01-30T15:14:04;102125.13;;;6.19;87.31
29433;BME280;16405;53.964;13.448;2024-01-30T15:16:33;102121.63;;;6.22;87.02
29433;BME280;16405;53.964;13.448;2024-01-30T15:18:58;102133.84;;;6.24;86.89
29433;BME280;16405;53.964;13.448;2024-01-30T15:21:38;102119.91;;;6.22;87.40
29433;BME280;16405;53.964;13.448;2024-01-30T15:24:05;102122.50;;;6.19;86.71
29433;BME280;16405;53.964;13.448;2024-01-30T15:26:44;102119.06;;;6.15;86.86
29433;BME280;16405;53.964;13.448;2024-01-30T15:29:19;102121.69;;;6.11;86.21
29433;BME280;16405;53.964;13.448;2024-01-30T15:31:57;102125.22;;;6.04;85.89
29433;BME280;16405;53.964;13.448;2024-01-30T15:34:26;102119.16;;;5.99;86.29
29433;BME280;16405;53.964;13.448;2024-01-30T15:37:00;102120.91;;;5.89;87.38
29433;BME280;16405;53.964;13.448;2024-01-30T15:39:30;102117.47;;;5.79;88.02
29433;BME280;16405;53.964;13.448;2024-01-30T15:44:49;102127.06;;;5.74;88.25
29433;BME280;16405;53.964;13.448;2024-01-30T15:47:15;102128.81;;;5.75;88.46
29433;BME280;16405;53.964;13.448;2024-01-30T15:49:47;102126.19;;;5.72;87.92
29433;BME280;16405;53.964;13.448;2024-01-30T15:52:16;102131.47;;;5.70;88.33
29433;BME280;16405;53.964;13.448;2024-01-30T15:54:55;102128.84;;;5.69;88.00
29433;BME280;16405;53.964;13.448;2024-01-30T15:57:24;102131.44;;;5.67;87.83
29433;BME280;16405;53.964;13.448;2024-01-30T15:59:59;102128.88;;;5.64;88.17
29433;BME280;16405;53.964;13.448;2024-01-30T16:02:27;102126.28;;;5.55;88.77
29433;BME280;16405;53.964;13.448;2024-01-30T16:05:14;102133.22;;;5.54;88.92
29433;BME280;16405;53.964;13.448;2024-01-30T16:08:03;102125.44;;;5.41;89.29
29433;BME280;16405;53.964;13.448;2024-01-30T16:10:38;102125.47;;;5.42;90.19
29433;BME280;16405;53.964;13.448;2024-01-30T16:13:04;102121.94;;;5.42;89.74
29433;BME280;16405;53.964;13.448;2024-01-30T16:15:38;102127.16;;;5.46;89.55
29433;BME280;16405;53.964;13.448;2024-01-30T16:18:27;102131.53;;;5.47;89.27
29433;BME280;16405;53.964;13.448;2024-01-30T16:21:04;102129.78;;;5.46;88.94
29433;BME280;16405;53.964;13.448;2024-01-30T16:26:27;102132.41;;;5.39;89.12
29433;BME280;16405;53.964;13.448;2024-01-30T16:31:45;102126.34;;;5.32;89.81
29433;BME280;16405;53.964;13.448;2024-01-30T16:34:24;102123.72;;;5.30;90.22
29433;BME280;16405;53.964;13.448;2024-01-30T16:36:50;102129.81;;;5.32;90.93
29433;BME280;16405;53.964;13.448;2024-01-30T16:39:28;102132.41;;;5.35;90.60
29433;BME280;16405;53.964;13.448;2024-01-30T16:41:54;102127.19;;;5.40;90.49
29433;BME280;16405;53.964;13.448;2024-01-30T16:44:20;102125.47;;;5.42;90.21
29433;BME280;16405;53.964;13.448;2024-01-30T16:47:09;102127.19;;;5.43;89.84
29433;BME280;16405;53.964;13.448;2024-01-30T16:49:47;102128.94;;;5.44;89.87
29433;BME280;16405;53.964;13.448;2024-01-30T16:52:16;102133.25;;;5.44;89.85
29433;BME280;16405;53.964;13.448;2024-01-30T16:54:58;102131.53;;;5.44;89.48
29433;BME280;16405;53.964;13.448;2024-01-30T16:57:40;102130.69;;;5.42;89.15
29433;BME280;16405;53.964;13.448;2024-01-30T17:00:35;102129.81;;;5.40;88.91
29433;BME280;16405;53.964;13.448;2024-01-30T17:03:16;102128.06;;;5.38;89.12
29433;BME280;16405;53.964;13.448;2024-01-30T17:06:04;102128.06;;;5.33;88.82
29433;BME280;16405;53.964;13.448;2024-01-30T17:08:33;102122.84;;;5.28;89.12
29433;BME280;16405;53.964;13.448;2024-01-30T17:11:21;102134.19;;;5.26;89.74
29433;BME280;16405;53.964;13.448;2024-01-30T17:14:07;102121.13;;;5.24;90.05
29433;BME280;16405;53.964;13.448;2024-01-30T17:16:45;102119.41;;;5.22;90.63
29433;BME280;16405;53.964;13.448;2024-01-30T17:19:31;102115.91;;;5.21;90.47
29433;BME280;16405;53.964;13.448;2024-01-30T17:22:06;102120.25;;;5.22;90.91
29433;BME280;16405;53.964;13.448;2024-01-30T17:24:35;102125.47;;;5.22;90.79
29433;BME280;16405;53.964;13.448;2024-01-30T17:27:15;102125.47;;;5.24;91.21
29433;BME280;16405;53.964;13.448;2024-01-30T17:30:04;102113.31;;;5.23;91.66
29433;BME280;16405;53.964;13.448;2024-01-30T17:35:57;102121.16;;;5.23;91.71
29433;BME280;16405;53.964;13.448;2024-01-30T17:38:26;102121.16;;;5.23;91.45
29433;BME280;16405;53.964;13.448;2024-01-30T17:41:15;102123.75;;;5.21;91.50
29433;BME280;16405;53.964;13.448;2024-01-30T17:43:47;102128.97;;;5.20;91.68
29433;BME280;16405;53.964;13.448;2024-01-30T17:46:36;102128.97;;;5.20;91.68
29433;BME280;16405;53.964;13.448;2024-01-30T17:49:05;102129.84;;;5.17;91.93
29433;BME280;16405;53.964;13.448;2024-01-30T17:51:46;102135.06;;;5.16;91.85
29433;BME280;16405;53.964;13.448;2024-01-30T17:54:35;102143.75;;;5.16;92.41
29433;BME280;16405;53.964;13.448;2024-01-30T17:57:18;102142.94;;;5.14;92.62
29433;BME280;16405;53.964;13.448;2024-01-30T17:59:44;102143.78;;;5.14;92.89
29433;BME280;16405;53.964;13.448;2024-01-30T18:02:10;102134.19;;;5.18;93.40
29433;BME280;16405;53.964;13.448;2024-01-30T18:05:07;102135.94;;;5.24;93.57
29433;BME280;16405;53.964;13.448;2024-01-30T18:07:43;102141.16;;;5.31;93.87
29433;BME280;16405;53.964;13.448;2024-01-30T18:10:27;102141.13;;;5.38;93.25
29433;BME280;16405;53.964;13.448;2024-01-30T18:13:08;102152.41;;;5.46;93.01
29433;BME280;16405;53.964;13.448;2024-01-30T18:15:46;102148.06;;;5.51;92.78
29433;BME280;16405;53.964;13.448;2024-01-30T18:21:20;102156.75;;;5.64;92.95
29433;BME280;16405;53.964;13.448;2024-01-30T18:23:56;102150.63;;;5.66;93.04
29433;BME280;16405;53.964;13.448;2024-01-30T18:26:25;102148.00;;;5.71;93.02
29433;BME280;16405;53.964;13.448;2024-01-30T18:29:17;102148.84;;;5.76;92.73
29433;BME280;16405;53.964;13.448;2024-01-30T18:31:46;102155.78;;;5.80;93.47
29433;BME280;16405;53.964;13.448;2024-01-30T18:34:25;102148.78;;;5.87;93.51
29433;BME280;16405;53.964;13.448;2024-01-30T18:37:07;102148.78;;;5.91;93.75
29433;BME280;16405;53.964;13.448;2024-01-30T18:39:38;102140.94;;;5.98;93.88
29433;BME280;16405;53.964;13.448;2024-01-30T18:42:11;102138.31;;;6.01;93.82
29433;BME280;16405;53.964;13.448;2024-01-30T18:44:45;102140.03;;;6.02;94.47
29433;BME280;16405;53.964;13.448;2024-01-30T18:47:16;102148.72;;;6.07;94.35